Saharanpur, Sarsawa Air Force Station (VISP)

NameSarsawa Air Force Station
CitySaharanpur
CountryIndia
ICAOVISP
IATA
Altitude272 m
CoordinatesGoogle Map
Live Air TrafficLiveATC.net
METARVISP 130000Z 06003KT 3200 HZ NSC 25/12 Q1008 NOSIG
2019-04-13 00:00:00 Wind: Northeast (60°) 1.54 m/s - Visibility: 3200 m - Weather: Haze - Temperature: 25 °C - Dew point: 12 °C - Humidity: 44.3% - Pressure: 1008 hPa

Sorry, no flights used the airport in this database.